createdAt,value
2019-02-28T00:03:53.045Z,175.73
2019-02-28T00:08:04.360Z,171.47
2019-02-28T00:12:15.624Z,169.93
2019-02-28T00:16:26.846Z,172.33
2019-02-28T00:20:37.982Z,174.07
2019-02-28T00:24:49.113Z,174.27
2019-02-28T00:29:01.096Z,170.77
2019-02-28T00:33:12.239Z,173.27
2019-02-28T00:37:24.702Z,172.37
2019-02-28T00:41:36.126Z,169.17
2019-02-28T00:45:46.693Z,170.53
2019-02-28T00:49:57.811Z,171.90
2019-02-28T00:54:09.721Z,175.83
2019-02-28T00:58:21.360Z,175.20
2019-02-28T01:02:32.584Z,175.33
2019-02-28T01:06:43.829Z,170.60
2019-02-28T01:10:54.932Z,167.50
2019-02-28T01:15:17.523Z,170.13
2019-02-28T01:19:28.681Z,175.23
2019-02-28T01:23:39.939Z,179.63
2019-02-28T01:27:52.417Z,173.70
2019-02-28T01:32:04.024Z,175.37
2019-02-28T01:36:16.342Z,171.87
2019-02-28T01:40:27.535Z,173.87
2019-02-28T01:44:39.256Z,174.70
2019-02-28T01:48:49.309Z,177.97
2019-02-28T01:53:00.552Z,174.87
2019-02-28T01:57:14.497Z,174.20
2019-02-28T02:01:28.487Z,174.23
2019-02-28T02:05:38.422Z,169.47
2019-02-28T02:09:49.599Z,172.83
2019-02-28T02:14:00.948Z,169.67
2019-02-28T02:18:12.220Z,171.13
2019-02-28T02:22:23.463Z,168.07
2019-02-28T02:26:34.583Z,168.93
2019-02-28T02:30:50.472Z,170.60
2019-02-28T02:35:06.249Z,172.07
2019-02-28T02:39:16.170Z,169.23
2019-02-28T02:43:24.989Z,169.27
2019-02-28T02:47:36.317Z,168.47
2019-02-28T02:51:50.548Z,171.70
2019-02-28T02:56:04.056Z,170.27
2019-02-28T03:00:18.632Z,171.00
2019-02-28T03:04:29.793Z,168.40
2019-02-28T03:08:40.954Z,167.40
2019-02-28T03:12:52.798Z,169.90
2019-02-28T03:17:09.950Z,169.87
2019-02-28T03:21:16.726Z,167.67
2019-02-28T03:25:28.327Z,165.77
2019-02-28T03:29:43.919Z,166.63
2019-02-28T03:33:53.179Z,172.27
2019-02-28T03:38:10.630Z,170.43
2019-02-28T03:42:17.254Z,171.80
2019-02-28T03:46:28.365Z,170.20
2019-02-28T03:50:39.583Z,172.43
2019-02-28T03:54:50.723Z,171.47
2019-02-28T03:59:01.834Z,170.43
2019-02-28T04:03:13.016Z,170.40
2019-02-28T04:07:25.458Z,168.93
2019-02-28T04:11:36.790Z,169.77
2019-02-28T04:16:07.649Z,171.50
2019-02-28T04:20:00.973Z,169.13
2019-02-28T04:24:13.835Z,169.73
2019-02-28T04:28:24.924Z,172.37
2019-02-28T04:32:44.460Z,169.10
2019-02-28T04:36:56.118Z,177.23
2019-02-28T04:41:11.225Z,168.72
2019-02-28T04:45:26.177Z,175.50
2019-02-28T04:49:39.762Z,172.13
2019-02-28T04:53:53.169Z,175.33
2019-02-28T04:58:05.103Z,169.90
2019-02-28T05:02:20.050Z,170.80
2019-02-28T05:06:35.092Z,169.10
2019-02-28T05:10:50.288Z,170.03
2019-02-28T05:15:09.621Z,171.70
2019-02-28T05:19:23.566Z,176.10
2019-02-28T05:23:36.780Z,177.33
2019-02-28T05:27:48.913Z,171.43
2019-02-28T05:32:15.598Z,171.63
2019-02-28T05:36:28.382Z,166.37
2019-02-28T05:40:41.307Z,171.20
2019-02-28T05:44:57.703Z,172.57
2019-02-28T05:49:26.871Z,169.77
2019-02-28T05:53:41.280Z,174.07
2019-02-28T05:57:53.561Z,172.10
2019-02-28T06:02:09.594Z,170.60
2019-02-28T06:06:39.052Z,173.47
2019-02-28T06:10:56.029Z,172.67
2019-02-28T06:19:43.588Z,172.00
2019-02-28T06:23:57.484Z,175.30
2019-02-28T06:28:12.359Z,173.33
2019-02-28T06:32:27.269Z,172.47
2019-02-28T06:36:39.653Z,173.17
2019-02-28T06:40:52.157Z,171.75
2019-02-28T06:45:06.922Z,171.60
2019-02-28T06:49:18.079Z,174.70
2019-02-28T06:53:33.736Z,175.50
2019-02-28T06:57:45.350Z,178.97
2019-02-28T07:01:57.506Z,180.33
2019-02-28T07:06:08.798Z,172.37
2019-02-28T07:10:20.057Z,174.43
2019-02-28T07:14:31.320Z,174.37
2019-02-28T07:18:46.857Z,184.83
2019-02-28T07:23:07.290Z,178.13
2019-02-28T07:27:29.738Z,176.63
2019-02-28T07:31:39.966Z,180.48
2019-02-28T07:35:56.249Z,179.67
2019-02-28T07:40:27.574Z,180.13
2019-02-28T07:44:41.084Z,179.57
2019-02-28T07:48:52.364Z,187.40
2019-02-28T07:53:10.058Z,181.33
2019-02-28T07:57:30.863Z,190.43
2019-02-28T08:01:41.396Z,183.40
2019-02-28T08:05:53.193Z,193.83
2019-02-28T08:10:08.671Z,189.67
2019-02-28T08:14:23.036Z,183.57
2019-02-28T08:18:34.256Z,188.03
2019-02-28T08:22:46.811Z,190.67
2019-02-28T08:26:57.990Z,186.00
2019-02-28T08:31:09.225Z,188.40
2019-02-28T08:35:20.375Z,186.37
2019-02-28T08:39:33.901Z,183.53
2019-02-28T08:43:47.835Z,189.63
2019-02-28T08:47:57.937Z,183.00
2019-02-28T08:52:09.074Z,184.93
2019-02-28T08:56:22.360Z,194.87
2019-02-28T09:00:37.629Z,192.73
2019-02-28T09:04:51.060Z,192.93
2019-02-28T09:09:04.874Z,193.80
2019-02-28T09:13:18.776Z,212.03
2019-02-28T09:17:31.422Z,188.77
2019-02-28T09:21:46.029Z,185.27
2019-02-28T09:25:59.006Z,189.33
2019-02-28T09:30:30.825Z,191.33
2019-02-28T09:34:43.015Z,195.87
2019-02-28T09:39:06.569Z,206.50
2019-02-28T09:43:18.038Z,199.83
2019-02-28T09:47:34.039Z,195.17
2019-02-28T09:51:49.645Z,197.73
2019-02-28T09:56:01.513Z,189.23
2019-02-28T10:00:24.348Z,197.90
2019-02-28T10:04:37.278Z,196.23
2019-02-28T10:08:48.377Z,192.70
2019-02-28T10:13:03.329Z,198.60
2019-02-28T10:17:25.931Z,186.93
2019-02-28T10:21:58.195Z,189.67
2019-02-28T10:26:19.207Z,194.40
2019-02-28T10:30:32.800Z,201.53
2019-02-28T10:34:46.245Z,192.67
2019-02-28T10:38:59.062Z,194.23
2019-02-28T10:43:12.180Z,189.53
2019-02-28T10:47:28.153Z,192.07
2019-02-28T10:51:51.426Z,192.73
2019-02-28T10:56:03.578Z,199.47
2019-02-28T11:00:17.962Z,199.73
2019-02-28T11:04:32.561Z,200.30
2019-02-28T11:08:49.509Z,192.37
2019-02-28T11:13:02.113Z,199.73
2019-02-28T11:17:13.911Z,196.23
2019-02-28T11:21:25.153Z,208.33
2019-02-28T11:25:36.541Z,198.30
2019-02-28T11:29:47.756Z,193.60
2019-02-28T11:33:58.924Z,191.43
2019-02-28T11:38:10.160Z,190.68
2019-02-28T11:42:24.541Z,195.75
2019-02-28T11:46:36.571Z,202.47
2019-02-28T11:50:47.860Z,205.55
2019-02-28T11:55:00.667Z,208.13
2019-02-28T11:59:11.797Z,211.85
2019-02-28T12:03:22.978Z,213.97
2019-02-28T12:07:34.888Z,210.72
2019-02-28T12:11:47.025Z,191.85
2019-02-28T12:15:58.143Z,208.32
2019-02-28T12:20:12.013Z,212.57
2019-02-28T12:24:24.648Z,210.97
2019-02-28T12:28:38.277Z,208.97
2019-02-28T12:32:48.656Z,208.10
2019-02-28T12:36:59.976Z,206.45
2019-02-28T12:41:11.398Z,212.35
2019-02-28T12:45:37.178Z,207.97
2019-02-28T12:49:49.940Z,198.00
2019-02-28T12:54:01.101Z,210.68
2019-02-28T12:58:12.234Z,214.63
2019-02-28T13:02:24.054Z,200.70
2019-02-28T13:06:36.042Z,203.60
2019-02-28T13:10:47.269Z,202.80
2019-02-28T13:14:59.299Z,215.73
2019-02-28T13:19:10.550Z,191.60
2019-02-28T13:23:22.580Z,205.80
2019-02-28T13:27:33.761Z,212.40
2019-02-28T13:31:45.240Z,210.17
2019-02-28T13:35:57.607Z,209.43
2019-02-28T13:40:14.778Z,209.37
2019-02-28T13:44:27.654Z,206.73
2019-02-28T13:48:41.786Z,202.80
2019-02-28T13:52:53.376Z,215.13
2019-02-28T13:57:08.096Z,212.70
2019-02-28T14:01:19.478Z,208.20
2019-02-28T14:05:30.721Z,213.67
2019-02-28T14:09:41.140Z,214.70
2019-02-28T14:13:52.364Z,211.67
2019-02-28T14:18:03.490Z,208.83
2019-02-28T14:22:14.833Z,191.93
2019-02-28T14:26:26.052Z,199.20
2019-02-28T14:30:38.023Z,219.40
2019-02-28T14:34:49.445Z,215.93
2019-02-28T14:39:00.850Z,213.63
2019-02-28T14:43:12.150Z,196.23
2019-02-28T14:47:24.938Z,205.93
2019-02-28T14:51:36.946Z,211.43
2019-02-28T14:55:48.076Z,213.62
2019-02-28T15:00:00.045Z,214.63
2019-02-28T15:04:11.988Z,207.07
2019-02-28T15:08:23.104Z,210.97
2019-02-28T15:12:34.463Z,213.40
2019-02-28T15:16:45.721Z,209.30
2019-02-28T15:20:57.797Z,205.10
2019-02-28T15:25:18.574Z,204.37
2019-02-28T15:29:31.109Z,208.23
2019-02-28T15:33:42.395Z,206.37
2019-02-28T15:37:53.557Z,205.07
2019-02-28T15:42:05.484Z,212.47
2019-02-28T15:46:17.729Z,206.87
2019-02-28T15:50:28.960Z,215.50
2019-02-28T15:54:41.069Z,205.17
2019-02-28T15:58:52.273Z,210.60
2019-02-28T16:03:03.784Z,210.87
2019-02-28T16:07:15.022Z,210.53
2019-02-28T16:11:26.334Z,205.90
2019-02-28T16:15:37.738Z,209.77
2019-02-28T16:19:49.100Z,213.13
2019-02-28T16:24:01.980Z,209.47
2019-02-28T16:28:13.209Z,207.50
2019-02-28T16:32:24.006Z,215.50
2019-02-28T16:36:35.178Z,207.43
2019-02-28T16:40:48.110Z,208.43
2019-02-28T16:45:02.480Z,208.87
2019-02-28T16:49:13.223Z,208.73
2019-02-28T16:53:24.386Z,204.67
2019-02-28T16:57:35.551Z,208.73
2019-02-28T17:01:54.470Z,207.67
2019-02-28T17:06:02.345Z,211.37
2019-02-28T17:10:21.843Z,209.93
2019-02-28T17:14:33.038Z,207.90
2019-02-28T17:18:45.967Z,203.73
2019-02-28T17:23:01.445Z,203.83
2019-02-28T17:27:20.304Z,208.03
2019-02-28T17:31:33.265Z,204.47
2019-02-28T17:35:44.422Z,208.73
2019-02-28T17:39:54.995Z,210.13
2019-02-28T17:44:30.550Z,210.50
2019-02-28T17:48:52.587Z,204.23
2019-02-28T17:53:18.880Z,208.40
2019-02-28T17:57:33.134Z,204.07
2019-02-28T18:02:01.573Z,206.23
2019-02-28T18:06:24.479Z,202.10
2019-02-28T18:11:05.879Z,202.57
2019-02-28T18:15:25.991Z,203.83
2019-02-28T18:20:08.921Z,209.10
2019-02-28T18:24:41.135Z,202.73
2019-02-28T18:29:07.449Z,205.43
2019-02-28T18:33:19.660Z,202.70
2019-02-28T18:37:30.906Z,203.57
2019-02-28T18:41:43.117Z,200.73
2019-02-28T18:45:53.588Z,205.63
2019-02-28T18:50:06.653Z,205.00
2019-02-28T18:54:17.824Z,205.57
2019-02-28T18:58:29.758Z,203.33
2019-02-28T19:02:41.272Z,212.93
2019-02-28T19:06:52.510Z,205.30
2019-02-28T19:11:03.824Z,204.97
2019-02-28T19:15:15.789Z,201.97
2019-02-28T19:19:27.225Z,204.33
2019-02-28T19:23:40.149Z,206.10
2019-02-28T19:27:52.245Z,205.73
2019-02-28T19:32:03.375Z,207.93
2019-02-28T19:36:14.738Z,204.57
2019-02-28T19:40:25.996Z,208.07
2019-02-28T19:44:37.220Z,207.10
2019-02-28T19:48:48.597Z,214.17
2019-02-28T19:52:59.723Z,208.07
2019-02-28T19:57:10.956Z,205.10
2019-02-28T20:01:22.081Z,206.20
2019-02-28T20:05:33.423Z,205.30
2019-02-28T20:09:46.124Z,205.80
2019-02-28T20:13:57.380Z,205.53
2019-02-28T20:18:08.890Z,210.17
2019-02-28T20:22:20.123Z,207.60
2019-02-28T20:26:31.966Z,210.20
2019-02-28T20:30:45.428Z,209.23
2019-02-28T20:34:56.678Z,210.23
2019-02-28T20:39:10.062Z,209.43
2019-02-28T20:43:21.196Z,208.53
2019-02-28T20:47:32.448Z,207.87
2019-02-28T20:51:43.613Z,207.43
2019-02-28T20:55:54.869Z,215.37
2019-02-28T21:00:09.220Z,212.03
2019-02-28T21:04:20.679Z,214.90
2019-02-28T21:08:31.937Z,216.50
2019-02-28T21:12:45.444Z,217.87
2019-02-28T21:16:56.627Z,218.47
2019-02-28T21:25:42.018Z,225.80
2019-02-28T21:34:26.840Z,213.70
2019-02-28T21:43:15.547Z,219.07
2019-02-28T21:47:33.814Z,217.50
2019-02-28T21:51:46.393Z,219.90
2019-02-28T21:55:56.986Z,217.13
2019-02-28T22:00:16.723Z,221.10
2019-02-28T22:04:27.809Z,224.33
2019-02-28T22:08:38.971Z,222.03
2019-02-28T22:12:50.137Z,224.73
2019-02-28T22:17:04.236Z,226.80
2019-02-28T22:21:16.617Z,230.17
2019-02-28T22:25:27.913Z,228.70
2019-02-28T22:29:40.757Z,219.93
2019-02-28T22:33:53.562Z,223.37
2019-02-28T22:38:08.126Z,218.37
2019-02-28T22:42:31.299Z,221.63
2019-02-28T22:46:50.772Z,216.43
2019-02-28T22:51:09.541Z,221.60
2019-02-28T22:55:21.577Z,223.90
2019-02-28T22:59:36.040Z,223.83
2019-02-28T23:03:57.433Z,224.20
2019-02-28T23:08:09.470Z,220.70
2019-02-28T23:12:20.733Z,223.57
2019-02-28T23:16:32.075Z,223.40
2019-02-28T23:20:43.288Z,228.63
2019-02-28T23:24:54.540Z,224.00
2019-02-28T23:29:08.422Z,226.83
2019-02-28T23:33:19.597Z,228.27
2019-02-28T23:37:30.742Z,230.17
2019-02-28T23:41:41.889Z,224.87
2019-02-28T23:45:56.240Z,225.00
2019-02-28T23:50:09.606Z,235.43
2019-02-28T23:54:21.630Z,223.23
2019-02-28T23:58:34.323Z,222.43
